Time;durP1;ratioP1;P1;durP2;ratioP2;P2;SDS_P1;SDS_P2;PMS_P1;PMS_P2;Temp;Humidity;BMP_temperature;BMP_pressure;BME280_temperature;BME280_humidity;BME280_pressure;Samples;Min_cycle;Max_cycle;Signal;HPM_P1;HPM_P2
2022/03/20 00:00:32;;;;;;;5.43;3.78;;;;;;;20.97;nan;100170.34;5132396;27;20143;-48
2022/03/20 00:02:58;;;;;;;4.85;3.70;;;;;;;20.97;nan;100175.09;5132105;28;20047;-50
2022/03/20 00:05:24;;;;;;;5.35;4.10;;;;;;;20.94;nan;100164.69;5132764;28;20043;-49
2022/03/20 00:07:49;;;;;;;5.20;3.88;;;;;;;20.98;nan;100165.59;5132833;28;20043;-49
2022/03/20 00:10:15;;;;;;;4.43;3.38;;;;;;;20.97;nan;100162.00;5132717;28;20447;-51
2022/03/20 00:12:42;;;;;;;4.65;3.70;;;;;;;20.97;nan;100159.22;5133038;28;20095;-49
2022/03/20 00:15:08;;;;;;;5.45;3.70;;;;;;;20.97;nan;100169.53;5132820;28;20085;-51
2022/03/20 00:17:34;;;;;;;4.60;3.47;;;;;;;20.95;nan;100163.53;5132536;28;20035;-52
2022/03/20 00:20:00;;;;;;;5.15;3.75;;;;;;;20.95;nan;100163.53;5132720;28;20043;-48
2022/03/20 00:22:26;;;;;;;4.53;3.80;;;;;;;20.96;nan;100163.16;5132716;28;20384;-49
2022/03/20 00:24:52;;;;;;;4.90;3.88;;;;;;;20.95;nan;100160.75;5132476;28;20035;-49
2022/03/20 00:27:18;;;;;;;4.93;4.00;;;;;;;20.97;nan;100175.09;5132420;28;20108;-48
2022/03/20 00:29:44;;;;;;;7.10;4.40;;;;;;;20.94;nan;100161.91;5132620;28;20350;-50
2022/03/20 00:32:12;;;;;;;5.00;3.78;;;;;;;20.94;nan;100173.03;5132407;28;20039;-49
2022/03/20 00:34:38;;;;;;;5.38;4.25;;;;;;;20.93;nan;100168.63;5132351;28;20054;-48
2022/03/20 00:37:06;;;;;;;5.25;3.83;;;;;;;20.93;nan;100172.22;5132202;28;20404;-49
2022/03/20 00:39:32;;;;;;;6.78;4.35;;;;;;;20.94;nan;100164.69;5132303;28;20043;-48
2022/03/20 00:41:58;;;;;;;5.05;4.03;;;;;;;20.93;nan;100165.84;5132145;28;20452;-48
2022/03/20 00:44:23;;;;;;;4.75;3.92;;;;;;;20.93;nan;100168.63;5132098;28;20519;-49
2022/03/20 00:46:49;;;;;;;5.03;3.80;;;;;;;20.93;nan;100163.06;5132224;28;20043;-48
2022/03/20 00:49:16;;;;;;;5.35;3.85;;;;;;;20.92;nan;100169.78;5132159;28;20414;-48
2022/03/20 00:51:42;;;;;;;5.45;4.13;;;;;;;20.92;nan;100170.59;5132113;28;20150;-50
2022/03/20 00:54:08;;;;;;;5.25;3.80;;;;;;;20.93;nan;100157.50;5132067;28;20043;-48
2022/03/20 00:56:34;;;;;;;5.50;4.10;;;;;;;20.89;nan;100154.63;5131978;28;20142;-48
2022/03/20 00:59:00;;;;;;;5.20;3.97;;;;;;;20.89;nan;100158.22;5129841;28;20139;-48
2022/03/20 01:01:28;;;;;;;4.55;3.60;;;;;;;20.92;nan;100167.00;5131815;28;20423;-49
2022/03/20 01:03:55;;;;;;;4.68;3.60;;;;;;;20.90;nan;100159.03;5131937;28;20039;-48
2022/03/20 01:06:22;;;;;;;5.00;3.60;;;;;;;20.93;nan;100163.88;5131998;28;20051;-48
2022/03/20 01:08:55;;;;;;;5.22;3.90;;;;;;;20.93;nan;100151.94;5131922;28;20155;-48
2022/03/20 01:11:20;;;;;;;5.05;3.92;;;;;;;20.93;nan;100152.75;5131857;28;20039;-51
2022/03/20 01:13:46;;;;;;;5.10;3.78;;;;;;;20.93;nan;100149.16;5131335;27;20053;-48
2022/03/20 01:16:12;;;;;;;5.13;3.90;;;;;;;20.91;nan;100154.28;5131454;28;20067;-48
2022/03/20 01:18:38;;;;;;;6.38;4.13;;;;;;;20.92;nan;100162.25;5131596;28;20039;-48
2022/03/20 01:21:03;;;;;;;5.18;3.97;;;;;;;20.93;nan;100166.66;5131715;28;20466;-50
2022/03/20 01:23:29;;;;;;;4.82;3.90;;;;;;;20.93;nan;100172.22;5131526;28;20429;-50
2022/03/20 01:25:55;;;;;;;4.22;3.50;;;;;;;20.93;nan;100171.41;5131536;28;20061;-50
2022/03/20 01:28:23;;;;;;;5.28;3.88;;;;;;;20.92;nan;100162.25;5131650;28;20043;-49
2022/03/20 01:30:49;;;;;;;5.85;4.57;;;;;;;20.92;nan;100162.25;5131485;28;20039;-48
2022/03/20 01:33:15;;;;;;;5.95;3.97;;;;;;;20.89;nan;100163.78;5131323;28;20525;-51
2022/03/20 01:35:41;;;;;;;5.05;4.20;;;;;;;20.92;nan;100161.44;5131248;28;20040;-51
2022/03/20 01:38:07;;;;;;;5.57;4.13;;;;;;;20.91;nan;100154.28;5129375;28;20092;-50
2022/03/20 01:40:34;;;;;;;5.15;4.20;;;;;;;20.92;nan;100162.25;5131191;28;20102;-49
2022/03/20 01:43:00;;;;;;;5.30;4.22;;;;;;;20.91;nan;100162.63;5130978;28;20070;-49
2022/03/20 01:45:29;;;;;;;5.32;4.20;;;;;;;20.89;nan;100161.00;5131143;28;20237;-48
2022/03/20 01:47:55;;;;;;;5.63;4.20;;;;;;;20.89;nan;100163.78;5130998;27;20051;-49
2022/03/20 01:50:23;;;;;;;5.40;4.40;;;;;;;20.89;nan;100154.63;5131013;28;20778;-50
2022/03/20 01:52:50;;;;;;;5.40;4.00;;;;;;;20.88;nan;100153.84;5130426;28;20095;-48
2022/03/20 01:55:17;;;;;;;5.43;4.05;;;;;;;20.87;nan;100156.97;5131128;28;20038;-48
2022/03/20 01:57:44;;;;;;;5.35;4.05;;;;;;;20.88;nan;100156.63;5112694;28;20398;-49
2022/03/20 02:00:11;;;;;;;5.32;4.00;;;;;;;20.89;nan;100155.44;5131252;28;20046;-48
2022/03/20 02:02:37;;;;;;;4.78;3.83;;;;;;;20.89;nan;100166.56;5130874;28;20051;-48
2022/03/20 02:05:05;;;;;;;5.65;3.75;;;;;;;20.88;nan;100159.41;5130985;28;20066;-48
2022/03/20 02:07:34;;;;;;;5.93;4.20;;;;;;;20.89;nan;100149.88;5130793;28;20441;-51
2022/03/20 02:10:00;;;;;;;4.88;4.00;;;;;;;20.88;nan;100156.63;5130978;28;20077;-49
2022/03/20 02:12:25;;;;;;;5.30;4.40;;;;;;;20.89;nan;100169.34;5131013;27;20259;-50
2022/03/20 02:14:51;;;;;;;5.22;4.00;;;;;;;20.91;nan;100159.84;5130720;28;20046;-48
2022/03/20 02:17:16;;;;;;;5.32;3.92;;;;;;;20.92;nan;100167.00;5130627;28;20516;-50
2022/03/20 02:19:42;;;;;;;5.00;3.90;;;;;;;20.91;nan;100160.66;5130877;28;20335;-49
2022/03/20 02:22:07;;;;;;;5.35;4.15;;;;;;;20.89;nan;100163.78;5130623;28;20418;-48
2022/03/20 02:24:46;;;;;;;5.10;4.10;;;;;;;20.88;nan;100167.75;5129845;27;20061;-50
2022/03/20 02:27:16;;;;;;;5.55;4.25;;;;;;;20.91;nan;100166.19;5130756;28;20183;-48
2022/03/20 02:29:48;;;;;;;5.85;4.05;;;;;;;20.92;nan;100161.44;5130676;28;20058;-48
2022/03/20 02:32:17;;;;;;;4.97;4.03;;;;;;;20.94;nan;100159.13;5130774;28;20058;-48
2022/03/20 02:34:45;;;;;;;5.10;4.03;;;;;;;20.94;nan;100159.13;5128706;28;20058;-49
2022/03/20 02:37:10;;;;;;;4.72;3.90;;;;;;;20.93;nan;100155.53;5130527;28;20047;-48
2022/03/20 02:39:36;;;;;;;5.68;4.40;;;;;;;20.93;nan;100163.06;5130562;28;20597;-48
2022/03/20 02:42:05;;;;;;;7.47;4.25;;;;;;;20.93;nan;100163.06;5130455;28;20130;-49
2022/03/20 02:44:50;;;;;;;5.55;4.28;;;;;;;20.93;nan;100160.28;5130527;28;20503;-49
2022/03/20 02:47:20;;;;;;;5.28;4.00;;;;;;;20.95;nan;100161.56;5130495;28;20046;-49
2022/03/20 02:49:49;;;;;;;4.82;3.92;;;;;;;20.94;nan;100161.91;5130419;28;20082;-48
2022/03/20 02:52:15;;;;;;;5.18;4.25;;;;;;;20.94;nan;100162.72;5130353;28;20047;-48
2022/03/20 02:54:40;;;;;;;5.93;4.40;;;;;;;20.94;nan;100165.50;5130604;28;20102;-48
2022/03/20 02:57:08;;;;;;;5.82;4.22;;;;;;;20.95;nan;100167.13;5130358;28;20068;-51
2022/03/20 02:59:34;;;;;;;5.72;4.30;;;;;;;20.94;nan;100168.28;5130128;28;20530;-48
2022/03/20 03:02:01;;;;;;;5.25;4.10;;;;;;;20.95;nan;100166.31;5129846;28;20051;-48
2022/03/20 03:04:26;;;;;;;5.45;4.15;;;;;;;20.97;nan;100163.97;5129994;28;20627;-51
2022/03/20 03:06:51;;;;;;;5.15;3.80;;;;;;;20.98;nan;100166.38;5130146;28;20056;-48
2022/03/20 03:12:04;;;;;;;5.78;4.07;;;;;;;20.98;nan;100168.38;5130338;28;20100;-49
2022/03/20 03:17:14;;;;;;;5.10;3.92;;;;;;;20.99;nan;100170.78;5129982;28;20050;-59
2022/03/20 03:19:39;;;;;;;5.10;4.07;;;;;;;20.98;nan;100174.72;5130013;28;20047;-59
2022/03/20 03:22:05;;;;;;;6.15;4.18;;;;;;;20.99;nan;100172.75;5129787;28;20051;-59
2022/03/20 03:24:30;;;;;;;5.22;4.03;;;;;;;20.99;nan;100183.88;5129945;28;20043;-59
2022/03/20 03:26:55;;;;;;;5.15;3.97;;;;;;;21.01;nan;100181.56;5129999;28;20130;-59
2022/03/20 03:29:21;;;;;;;5.38;4.15;;;;;;;21.01;nan;100193.50;5129919;28;20104;-59
2022/03/20 03:31:46;;;;;;;5.20;4.20;;;;;;;21.01;nan;100181.56;5129783;28;20129;-59
2022/03/20 03:36:55;;;;;;;4.88;3.90;;;;;;;21.03;nan;100193.16;5132341;27;20560;-59
2022/03/20 03:39:22;;;;;;;4.93;4.00;;;;;;;20.98;nan;100191.41;5133353;27;20055;-59
2022/03/20 03:41:50;;;;;;;4.95;3.92;;;;;;;21.01;nan;100187.13;5132936;28;20051;-59
2022/03/20 03:44:17;;;;;;;5.00;3.75;;;;;;;21.02;nan;100192.34;5132946;27;20138;-59
2022/03/20 03:46:42;;;;;;;4.68;3.55;;;;;;;21.02;nan;100192.34;5133168;27;20043;-59
2022/03/20 03:49:07;;;;;;;5.32;3.85;;;;;;;21.01;nan;100199.06;5133230;28;20549;-59
2022/03/20 03:51:33;;;;;;;5.13;4.32;;;;;;;21.01;nan;100199.06;5133090;28;20058;-59
2022/03/20 03:53:58;;;;;;;4.95;3.92;;;;;;;21.00;nan;100200.22;5133097;28;20039;-59
2022/03/20 03:56:24;;;;;;;5.05;4.20;;;;;;;21.01;nan;100207.41;5133153;28;20063;-59
2022/03/20 03:58:49;;;;;;;5.65;4.30;;;;;;;21.02;nan;100200.69;5133021;27;20035;-59
2022/03/20 04:01:14;;;;;;;5.05;4.05;;;;;;;21.00;nan;100203.00;5132838;28;20597;-59
2022/03/20 04:03:40;;;;;;;4.95;4.00;;;;;;;21.01;nan;100198.25;5132977;28;20039;-59
2022/03/20 04:06:07;;;;;;;5.10;4.00;;;;;;;21.01;nan;100201.84;5132800;28;20398;-59
2022/03/20 04:08:34;;;;;;;5.22;3.90;;;;;;;21.04;nan;100203.09;5132750;28;20137;-59
2022/03/20 04:11:00;;;;;;;4.60;3.80;;;;;;;21.03;nan;100201.50;5133011;28;20039;-59
2022/03/20 04:13:26;;;;;;;4.70;3.53;;;;;;;21.02;nan;100203.47;5133159;27;20088;-59
2022/03/20 04:15:52;;;;;;;5.85;4.20;;;;;;;21.01;nan;100201.03;5132684;28;20395;-59
2022/03/20 04:18:18;;;;;;;5.20;3.80;;;;;;;21.00;nan;100202.19;5132615;28;20108;-59
2022/03/20 04:20:44;;;;;;;4.57;3.53;;;;;;;21.00;nan;100202.19;5132732;28;20047;-49
2022/03/20 04:25:54;;;;;;;4.78;3.60;;;;;;;21.08;nan;100201.22;5132538;27;20107;-49
2022/03/20 04:28:21;;;;;;;4.43;3.58;;;;;;;21.73;nan;100203.66;5132413;28;20452;-49
2022/03/20 04:30:48;;;;;;;5.30;3.90;;;;;;;22.77;nan;100215.88;5132496;27;20043;-48
2022/03/20 04:33:14;;;;;;;4.47;3.55;;;;;;;23.41;nan;100210.69;5132443;27;20043;-51
2022/03/20 04:35:40;;;;;;;4.50;3.60;;;;;;;23.04;nan;100217.63;5132429;27;20043;-49
2022/03/20 04:38:05;;;;;;;4.55;3.65;;;;;;;22.68;nan;100221.69;5132341;28;20039;-48
2022/03/20 04:40:30;;;;;;;4.47;3.65;;;;;;;22.36;nan;100223.84;5132261;28;20127;-52
2022/03/20 04:42:56;;;;;;;4.50;3.60;;;;;;;22.10;nan;100226.44;5132002;27;20128;-52
2022/03/20 04:45:21;;;;;;;3.83;3.22;;;;;;;21.91;nan;100222.38;5132165;27;20054;-49
2022/03/20 04:58:43;;;;;;;4.47;3.35;;;;;;;21.39;nan;100225.50;5132144;28;20095;-48
2022/03/20 05:01:09;;;;;;;4.63;3.72;;;;;;;21.35;nan;100222.63;5131918;28;20051;-48
2022/03/20 05:03:35;;;;;;;4.30;3.35;;;;;;;21.33;nan;100232.50;5131784;28;20047;-50
2022/03/20 05:06:02;;;;;;;4.35;3.50;;;;;;;21.30;nan;100236.00;5131955;28;20046;-59
2022/03/20 05:08:28;;;;;;;5.15;3.83;;;;;;;21.27;nan;100234.69;5131874;28;20075;-58
2022/03/20 05:13:38;;;;;;;4.68;3.88;;;;;;;21.23;nan;100236.59;5131686;28;20104;-59
2022/03/20 05:16:04;;;;;;;4.40;3.63;;;;;;;21.23;nan;100239.38;5131519;28;20039;-59
2022/03/20 05:18:32;;;;;;;4.43;3.55;;;;;;;21.21;nan;100238.91;5131723;28;20049;-59
2022/03/20 05:20:57;;;;;;;5.05;4.07;;;;;;;21.21;nan;100241.69;5131745;28;20411;-59
2022/03/20 05:23:23;;;;;;;4.50;3.80;;;;;;;21.19;nan;100246.00;5131645;28;20494;-59
2022/03/20 05:25:48;;;;;;;4.40;3.58;;;;;;;21.19;nan;100246.00;5131620;28;20043;-59
2022/03/20 05:28:15;;;;;;;4.47;3.63;;;;;;;21.19;nan;100252.38;5131514;28;20035;-59
2022/03/20 05:30:42;;;;;;;4.30;3.65;;;;;;;21.17;nan;100249.16;5131428;28;20130;-59
2022/03/20 05:33:10;;;;;;;4.75;3.60;;;;;;;21.16;nan;100250.31;5131263;27;20530;-59
2022/03/20 05:35:37;;;;;;;4.55;3.83;;;;;;;21.14;nan;100252.63;5131301;27;20043;-58
2022/03/20 05:38:02;;;;;;;4.05;3.28;;;;;;;21.16;nan;100264.22;5131123;28;20043;-59
2022/03/20 05:40:28;;;;;;;5.05;3.75;;;;;;;21.15;nan;100259.84;5131473;28;20039;-49
2022/03/20 05:42:53;;;;;;;4.47;3.47;;;;;;;21.13;nan;100260.16;5131278;28;20536;-48
2022/03/20 05:45:18;;;;;;;4.97;3.88;;;;;;;21.13;nan;100262.94;5131238;27;20046;-49
2022/03/20 05:47:44;;;;;;;4.60;3.80;;;;;;;21.14;nan;100269.31;5131231;27;20057;-48
2022/03/20 05:50:10;;;;;;;5.82;3.70;;;;;;;21.14;nan;100264.56;5131224;27;20047;-48
2022/03/20 05:52:36;;;;;;;4.40;3.42;;;;;;;21.14;nan;100270.13;5131301;28;20054;-48
2022/03/20 05:55:03;;;;;;;4.13;3.35;;;;;;;21.15;nan;100273.75;5131057;27;20047;-48
2022/03/20 06:00:24;;;;;;;4.10;3.15;;;;;;;21.15;nan;100282.09;5131289;27;20062;-49
2022/03/20 06:02:50;;;;;;;4.20;3.40;;;;;;;21.12;nan;100280.81;5131087;28;20411;-59
2022/03/20 06:05:16;;;;;;;4.53;3.75;;;;;;;21.12;nan;100286.38;5131035;27;20084;-59
2022/03/20 06:07:44;;;;;;;4.80;3.63;;;;;;;21.15;nan;100287.66;5130772;28;20065;-59
2022/03/20 06:10:14;;;;;;;4.45;3.65;;;;;;;21.14;nan;100288.78;5130899;27;20467;-59
2022/03/20 06:12:39;;;;;;;4.68;3.60;;;;;;;21.14;nan;100286.81;5130948;27;20039;-58
2022/03/20 06:15:08;;;;;;;5.05;3.72;;;;;;;21.09;nan;100275.97;5130720;27;20049;-59
2022/03/20 06:17:40;;;;;;;4.20;3.20;;;;;;;21.12;nan;100277.22;5130666;28;20146;-59
2022/03/20 06:20:08;;;;;;;4.82;3.67;;;;;;;21.14;nan;100286.00;5130839;28;20066;-59
2022/03/20 06:22:34;;;;;;;4.32;3.20;;;;;;;21.13;nan;100287.19;5130450;28;20066;-59
2022/03/20 06:25:03;;;;;;;4.00;3.20;;;;;;;21.12;nan;100282.78;5130350;28;20043;-59
2022/03/20 06:27:28;;;;;;;4.70;3.40;;;;;;;21.13;nan;100288.00;5130638;27;20055;-59
2022/03/20 06:29:55;;;;;;;5.05;3.80;;;;;;;21.13;nan;100289.97;5130648;28;20423;-59
2022/03/20 06:32:20;;;;;;;4.25;3.38;;;;;;;21.14;nan;100288.78;5130358;28;20074;-59
2022/03/20 06:34:45;;;;;;;4.60;3.72;;;;;;;21.13;nan;100296.34;5130457;28;20081;-59
2022/03/20 06:37:11;;;;;;;4.72;3.80;;;;;;;21.13;nan;100289.97;5130595;28;20047;-59
2022/03/20 06:39:36;;;;;;;4.47;3.42;;;;;;;21.14;nan;100294.34;5130541;28;20047;-59
2022/03/20 06:42:02;;;;;;;5.07;3.75;;;;;;;21.14;nan;100297.13;5130563;28;20423;-59
2022/03/20 06:44:27;;;;;;;5.13;3.72;;;;;;;21.15;nan;100299.59;5130790;28;20462;-49
2022/03/20 06:46:54;;;;;;;4.38;3.63;;;;;;;21.15;nan;100296.00;5130467;28;20126;-52
2022/03/20 06:49:20;;;;;;;4.72;3.55;;;;;;;21.15;nan;100307.13;5130340;27;20053;-49
2022/03/20 06:51:46;;;;;;;5.05;3.72;;;;;;;21.16;nan;100298.41;5130319;28;20047;-48
2022/03/20 06:54:12;;;;;;;4.75;3.88;;;;;;;21.16;nan;100301.19;5130403;28;20043;-50
2022/03/20 06:56:37;;;;;;;4.75;3.70;;;;;;;21.16;nan;100301.19;5130246;27;20051;-48
2022/03/20 06:59:02;;;;;;;4.30;3.50;;;;;;;21.17;nan;100299.22;5130319;28;20510;-50
2022/03/20 07:01:28;;;;;;;4.25;3.42;;;;;;;21.17;nan;100308.38;5130266;28;20054;-51
2022/03/20 07:03:54;;;;;;;4.57;3.65;;;;;;;21.17;nan;100296.44;5130256;28;20113;-48
2022/03/20 07:06:20;;;;;;;4.32;3.42;;;;;;;21.18;nan;100309.19;5130167;27;20039;-49
2022/03/20 07:08:45;;;;;;;4.80;3.70;;;;;;;21.17;nan;100307.56;5129960;28;20043;-51
2022/03/20 07:11:13;;;;;;;4.93;3.67;;;;;;;21.16;nan;100308.75;5131804;27;20380;-48
2022/03/20 07:13:53;;;;;;;4.40;3.72;;;;;;;21.17;nan;100316.72;5133704;28;20040;-49
2022/03/20 07:16:21;;;;;;;4.97;3.67;;;;;;;21.16;nan;100320.69;5133711;28;20040;-49
2022/03/20 07:18:47;;;;;;;4.93;3.75;;;;;;;21.18;nan;100325.88;5133628;28;20043;-48
2022/03/20 07:21:18;;;;;;;5.65;4.10;;;;;;;21.17;nan;100330.63;5133402;28;20051;-47
2022/03/20 07:23:44;;;;;;;4.50;3.75;;;;;;;21.16;nan;100323.47;5133422;28;20043;-50
2022/03/20 07:31:37;;;;;;;5.07;4.20;;;;;;;21.17;nan;100329.84;5133510;28;20054;-48
2022/03/20 07:34:02;;;;;;;4.90;3.97;;;;;;;21.16;nan;100325.44;5133353;28;20043;-48
2022/03/20 07:36:28;;;;;;;4.18;3.45;;;;;;;21.16;nan;100329.03;5133299;28;20050;-48
2022/03/20 07:38:54;;;;;;;5.60;3.95;;;;;;;21.16;nan;100329.03;5133265;28;20498;-51
2022/03/20 07:41:21;;;;;;;4.53;3.70;;;;;;;21.16;nan;100328.22;5133226;27;20039;-52
2022/03/20 07:43:48;;;;;;;5.70;4.20;;;;;;;21.17;nan;100335.41;5133208;28;20043;-48
2022/03/20 07:46:14;;;;;;;5.68;4.05;;;;;;;21.15;nan;100327.41;5133195;28;20055;-48
2022/03/20 07:48:40;;;;;;;5.22;4.05;;;;;;;21.17;nan;100329.84;5133204;28;20046;-51
2022/03/20 07:51:07;;;;;;;5.38;4.10;;;;;;;21.16;nan;100334.59;5133124;27;20043;-49
2022/03/20 07:53:32;;;;;;;4.78;4.03;;;;;;;21.16;nan;100337.38;5132858;28;20155;-49
2022/03/20 07:55:57;;;;;;;5.35;4.30;;;;;;;21.17;nan;100343.75;5133098;27;20067;-50
2022/03/20 07:58:23;;;;;;;4.65;3.80;;;;;;;21.17;nan;100341.78;5133018;27;20043;-48
2022/03/20 08:00:48;;;;;;;4.93;4.10;;;;;;;21.16;nan;100334.59;5132912;27;20137;-48
2022/03/20 08:03:15;;;;;;;4.95;4.13;;;;;;;21.15;nan;100341.31;5132718;27;20395;-49
2022/03/20 08:05:40;;;;;;;5.32;4.07;;;;;;;21.16;nan;100339.34;5132842;28;20089;-48
2022/03/20 08:08:07;;;;;;;5.57;4.15;;;;;;;21.16;nan;100339.34;5132818;28;20102;-49
2022/03/20 08:10:32;;;;;;;4.95;4.10;;;;;;;21.15;nan;100340.50;5133181;28;20051;-50
2022/03/20 08:12:57;;;;;;;5.18;4.18;;;;;;;21.15;nan;100338.53;5132845;28;20046;-48
2022/03/20 08:15:24;;;;;;;5.60;4.38;;;;;;;21.14;nan;100336.91;5132685;28;20054;-58
2022/03/20 08:17:50;;;;;;;5.40;4.13;;;;;;;21.13;nan;100340.03;5132605;28;20051;-59
2022/03/20 08:20:17;;;;;;;5.35;4.22;;;;;;;21.13;nan;100332.50;5132843;28;20040;-59
2022/03/20 08:22:43;;;;;;;5.75;4.32;;;;;;;21.13;nan;100338.06;5131385;27;20626;-59
2022/03/20 08:25:10;;;;;;;5.20;4.03;;;;;;;21.13;nan;100334.47;5132737;27;20066;-59
2022/03/20 08:27:46;;;;;;;5.45;4.00;;;;;;;21.12;nan;100327.28;5132312;28;20063;-59
2022/03/20 08:30:15;;;;;;;5.85;4.10;;;;;;;21.13;nan;100337.25;5132719;27;20042;-59
2022/03/20 08:32:40;;;;;;;5.20;3.88;;;;;;;21.12;nan;100336.44;5132529;28;20043;-59
2022/03/20 08:35:06;;;;;;;6.07;4.72;;;;;;;21.12;nan;100336.44;5132550;27;20047;-59
2022/03/20 08:37:32;;;;;;;5.05;3.90;;;;;;;21.12;nan;100332.84;5131746;28;20133;-59
2022/03/20 08:39:58;;;;;;;4.82;4.00;;;;;;;21.10;nan;100336.00;5132574;28;20126;-59
2022/03/20 08:42:23;;;;;;;4.93;4.43;;;;;;;21.09;nan;100339.97;5132235;28;20047;-59
2022/03/20 08:44:51;;;;;;;5.30;4.03;;;;;;;21.09;nan;100336.38;5132289;28;20410;-58
2022/03/20 08:47:16;;;;;;;5.35;4.20;;;;;;;21.09;nan;100339.16;5132310;28;20043;-59
2022/03/20 08:49:42;;;;;;;5.45;4.20;;;;;;;21.07;nan;100347.81;5132207;27;20044;-59
2022/03/20 08:52:08;;;;;;;5.13;4.30;;;;;;;21.07;nan;100347.00;5132244;28;20058;-59
2022/03/20 08:54:33;;;;;;;5.95;4.50;;;;;;;21.04;nan;100340.19;5132310;27;20396;-59
2022/03/20 08:57:01;;;;;;;6.38;4.75;;;;;;;21.05;nan;100350.16;5132078;28;20159;-59
2022/03/20 08:59:26;;;;;;;5.25;4.05;;;;;;;21.02;nan;100341.72;5131839;28;20046;-59
2022/03/20 09:01:52;;;;;;;5.18;4.18;;;;;;;21.02;nan;100347.28;5132080;28;20061;-59
2022/03/20 09:04:17;;;;;;;5.70;4.40;;;;;;;21.01;nan;100345.69;5131955;28;20423;-59
2022/03/20 09:06:47;;;;;;;6.03;4.38;;;;;;;21.00;nan;100353.19;5131903;28;20457;-59
2022/03/20 09:09:14;;;;;;;5.68;4.47;;;;;;;20.98;nan;100360.28;5131798;28;20031;-59
2022/03/20 09:11:41;;;;;;;6.25;4.60;;;;;;;20.95;nan;100355.44;5131731;28;20503;-59
2022/03/20 09:14:07;;;;;;;5.38;4.05;;;;;;;20.93;nan;100354.94;5131842;28;20088;-59
2022/03/20 09:19:18;;;;;;;5.35;4.25;;;;;;;20.91;nan;100366.44;5131888;28;20104;-59
2022/03/20 09:21:44;;;;;;;5.85;4.22;;;;;;;20.86;nan;100361.94;5131440;28;20074;-59
2022/03/20 09:24:09;;;;;;;5.25;4.60;;;;;;;20.85;nan;100363.09;5131572;28;20392;-59
2022/03/20 09:26:35;;;;;;;6.38;5.00;;;;;;;20.84;nan;100361.47;5131649;28;20059;-59
2022/03/20 09:29:00;;;;;;;5.18;4.30;;;;;;;20.82;nan;100363.00;5131663;28;20414;-59
2022/03/20 09:31:27;;;;;;;5.80;4.35;;;;;;;20.83;nan;100368.19;5131041;27;20043;-59
2022/03/20 09:33:53;;;;;;;5.72;4.57;;;;;;;20.81;nan;100367.75;5130798;27;20449;-59
2022/03/20 09:36:18;;;;;;;6.45;4.93;;;;;;;20.82;nan;100365.78;5131079;27;20555;-59
2022/03/20 09:38:44;;;;;;;6.68;4.88;;;;;;;20.79;nan;100352.59;5116001;28;20478;-59
2022/03/20 09:41:11;;;;;;;5.40;4.55;;;;;;;20.81;nan;100356.63;5110740;28;20078;-59
2022/03/20 09:43:39;;;;;;;7.07;4.63;;;;;;;20.80;nan;100360.56;5110727;28;20039;-59
2022/03/20 09:46:06;;;;;;;7.30;4.53;;;;;;;20.81;nan;100351.06;5110726;28;20043;-59
2022/03/20 09:48:32;;;;;;;5.63;4.38;;;;;;;20.80;nan;100351.41;5110346;28;20534;-59
2022/03/20 09:50:59;;;;;;;5.97;4.30;;;;;;;20.79;nan;100347.81;5110473;28;20047;-59
2022/03/20 09:53:25;;;;;;;5.60;4.32;;;;;;;20.79;nan;100355.38;5110660;28;20051;-59
2022/03/20 09:55:51;;;;;;;6.30;4.78;;;;;;;20.79;nan;100360.94;5110638;28;20092;-59
2022/03/20 09:58:16;;;;;;;5.22;4.20;;;;;;;20.78;nan;100351.75;5110473;28;20085;-58
2022/03/20 10:00:42;;;;;;;5.80;4.60;;;;;;;20.77;nan;100360.44;5110382;28;20040;-59
2022/03/20 10:03:18;;;;;;;5.35;4.38;;;;;;;20.74;nan;100350.03;5110395;28;20052;-59
2022/03/20 10:05:44;;;;;;;6.10;4.53;;;;;;;20.76;nan;100353.28;5074581;28;20044;-59
2022/03/20 10:08:17;;;;;;;6.07;4.45;;;;;;;20.75;nan;100352.47;5110663;28;20044;-50
2022/03/20 10:10:43;;;;;;;5.18;4.45;;;;;;;20.74;nan;100345.28;5110572;28;20055;-48
2022/03/20 10:13:13;;;;;;;5.30;4.20;;;;;;;20.73;nan;100340.88;5110571;28;20043;-48
2022/03/20 10:15:42;;;;;;;4.90;4.18;;;;;;;20.71;nan;100345.97;5110217;28;20495;-50
2022/03/20 10:18:10;;;;;;;5.22;4.20;;;;;;;20.72;nan;100342.06;5110233;28;20767;-48
2022/03/20 10:20:44;;;;;;;5.30;4.40;;;;;;;20.72;nan;100349.59;5110073;28;20043;-48
2022/03/20 10:23:33;;;;;;;4.75;3.72;;;;;;;20.70;nan;100346.31;5109972;28;20393;-48
2022/03/20 10:26:03;;;;;;;5.07;4.10;;;;;;;20.67;nan;100345.06;5110421;28;20073;-48
2022/03/20 10:28:35;;;;;;;5.07;3.90;;;;;;;20.67;nan;100345.06;5110489;28;20566;-49
2022/03/20 10:31:02;;;;;;;5.03;3.90;;;;;;;20.67;nan;100347.03;5110428;28;20102;-49
2022/03/20 10:33:28;;;;;;;5.40;4.28;;;;;;;20.66;nan;100343.47;5110025;28;20044;-48
2022/03/20 10:36:15;;;;;;;5.50;4.10;;;;;;;20.64;nan;100340.19;5110001;28;20104;-48
2022/03/20 10:38:43;;;;;;;5.00;3.85;;;;;;;20.65;nan;100341.84;5109851;28;20047;-48
2022/03/20 10:41:23;;;;;;;5.55;4.10;;;;;;;20.62;nan;100325.84;5109853;28;20043;-51
2022/03/20 10:43:53;;;;;;;4.60;3.78;;;;;;;20.65;nan;100327.13;5109981;28;20047;-48
2022/03/20 10:46:26;;;;;;;4.75;3.75;;;;;;;20.66;nan;100325.97;5111612;28;20100;-49
2022/03/20 10:48:59;;;;;;;4.57;3.88;;;;;;;20.64;nan;100325.50;5113504;28;20423;-48
2022/03/20 10:51:40;;;;;;;4.90;3.75;;;;;;;20.63;nan;100327.47;5113467;28;20053;-49
2022/03/20 10:54:12;;;;;;;5.57;3.72;;;;;;;20.66;nan;100326.78;5113321;28;20707;-49
2022/03/20 10:56:58;;;;;;;;;;;;;;;20.70;nan;100316.56;5113965;28;20513;-49
2022/03/20 10:59:24;;;;;;;4.60;3.50;;;;;;;20.68;nan;100313.31;5113672;28;20410;-48
2022/03/20 11:01:50;;;;;;;5.00;3.80;;;;;;;20.66;nan;100310.09;5113498;28;20051;-49
2022/03/20 11:04:17;;;;;;;5.05;3.92;;;;;;;20.67;nan;100306.16;5113434;28;20043;-48
2022/03/20 11:06:48;;;;;;;4.57;3.42;;;;;;;20.69;nan;100314.13;5113152;28;20058;-48
2022/03/20 11:09:15;;;;;;;5.10;3.90;;;;;;;20.68;nan;100312.53;5094980;28;20036;-48
2022/03/20 11:11:51;;;;;;;4.53;3.28;;;;;;;20.65;nan;100310.47;5113057;28;20044;-48
2022/03/20 11:14:25;;;;;;;4.82;3.67;;;;;;;20.68;nan;100312.53;5111197;28;20192;-59
2022/03/20 11:17:13;;;;;;;4.63;3.63;;;;;;;20.66;nan;100312.06;5113208;28;20039;-59
2022/03/20 11:19:46;;;;;;;5.13;3.85;;;;;;;20.68;nan;100309.75;5113111;28;20212;-59
2022/03/20 11:22:14;;;;;;;4.25;3.38;;;;;;;20.67;nan;100305.34;5113125;28;20047;-59
2022/03/20 11:24:42;;;;;;;4.72;3.80;;;;;;;20.69;nan;100308.56;5113124;28;20055;-59
2022/03/20 11:27:11;;;;;;;4.80;3.65;;;;;;;20.67;nan;100308.13;5113055;28;20047;-59
2022/03/20 11:30:00;;;;;;;5.22;3.88;;;;;;;20.67;nan;100306.16;5113027;28;20491;-59
2022/03/20 11:32:26;;;;;;;4.30;3.30;;;;;;;20.70;nan;100305.44;5112792;28;20093;-59
2022/03/20 11:34:52;;;;;;;4.50;3.50;;;;;;;20.69;nan;100303.00;5112777;28;20058;-59
2022/03/20 11:37:18;;;;;;;4.55;3.33;;;;;;;20.69;nan;100309.38;5112474;28;20092;-59
2022/03/20 11:40:22;;;;;;;5.32;3.35;;;;;;;20.70;nan;100301.84;5112661;28;20040;-59
2022/03/20 11:42:51;;;;;;;5.30;3.78;;;;;;;20.72;nan;100292.00;5112619;28;20542;-58
2022/03/20 11:45:20;;;;;;;4.72;3.38;;;;;;;20.70;nan;100285.97;5112581;28;20460;-59
2022/03/20 11:47:49;;;;;;;4.45;3.38;;;;;;;20.68;nan;100285.53;5112698;28;20515;-59
2022/03/20 11:50:14;;;;;;;4.63;2.92;;;;;;;20.72;nan;100283.69;5112609;28;20043;-59
2022/03/20 11:52:55;;;;;;;4.13;3.22;;;;;;;20.69;nan;100280.78;5112644;28;20415;-59
2022/03/20 11:55:30;;;;;;;5.20;3.65;;;;;;;20.72;nan;100280.09;5112537;28;20126;-59
2022/03/20 11:57:57;;;;;;;3.92;2.92;;;;;;;20.73;nan;100287.25;5112165;28;20043;-59
2022/03/20 12:00:26;;;;;;;5.40;3.35;;;;;;;20.71;nan;100279.25;5112508;28;20047;-59
2022/03/20 12:03:13;;;;;;;5.38;3.67;;;;;;;20.73;nan;100276.13;5112428;28;20052;-48
2022/03/20 12:05:41;;;;;;;4.10;3.28;;;;;;;20.72;nan;100269.78;5112654;28;20435;-48
2022/03/20 12:08:25;;;;;;;3.80;2.90;;;;;;;20.72;nan;100264.22;5112473;28;20047;-50
2022/03/20 12:10:59;;;;;;;3.83;3.08;;;;;;;20.72;nan;100260.63;5112425;28;20525;-49
2022/03/20 12:13:53;;;;;;;3.75;2.88;;;;;;;20.73;nan;100251.13;5112220;28;20039;-48
2022/03/20 12:16:43;;;;;;;4.18;3.20;;;;;;;20.73;nan;100256.69;5102758;28;20389;-48
2022/03/20 12:19:12;;;;;;;4.20;2.90;;;;;;;20.73;nan;100256.69;5112174;28;20627;-50